N0,26 Fumimaru — JK5398 — position and weather

sailwx.info

Track history (hours):
 
Tides and Currents Weather Stations Pressure Air Temp Water Temp Dewpoint Dewpoint Depression Visibility Wind Speed Wind Dir Waves Ship Positions

N0,26 Fumimaru

Last reported at 2016-Jul-22 03:04 UTC. Time now 2016-Jul-23 13:09 UTC.
Position N 35°24' E 139°42'.

Length 39 m.

Type: Ship. MMSI: 431400427.

Date/timePositionNaut miles runAvg speedWind from/ knotsBaromVisibWave heightAir tempDewpointWater temp
2016-Jul-22 03:04N 35°24' E 139°42'2 2.4
2016-Jul-22 02:22N 35°25' E 139°41'0 0.6
2016-Jul-22 01:32N 35°25' E 139°42'4 3.8
2016-Jul-22 00:32N 35°21' E 139°42'5 4.3
2016-Jul-21 23:26N 35°18' E 139°45'3 3.7
2016-Jul-21 22:33N 35°15' E 139°47'5 4.4
2016-Jul-21 21:32N 35°10' E 139°47'  
2016-Jul-19 02:33N 35°26' E 139°45'1110.7
2016-Jul-19 01:33N 35°34' E 139°55'8 7.9
2016-Jul-19 00:33N 35°41' E 139°59'1 1.2
2016-Jul-18 23:33N 35°39' E 139°59'3 3.4
2016-Jul-18 22:33N 35°36' E 139°58'2 2.1
2016-Jul-18 21:33N 35°34' E 139°57'2 1.9
2016-Jul-18 20:29N 35°33' E 139°56'2 2.1
2016-Jul-18 19:34N 35°31' E 139°54'3 2.7
2016-Jul-18 18:32N 35°29' E 139°52'4 4.2
2016-Jul-18 17:28N 35°26' E 139°48'4 4.3
2016-Jul-18 16:33N 35°22' E 139°46'4 4.4
2016-Jul-18 15:32N 35°18' E 139°45'5 4.5
2016-Jul-18 14:32N 35°14' E 139°47'6 4.3
2016-Jul-18 13:13N 35°08' E 139°47'  
Track history (hours):
 
Tides and Currents Weather Stations Pressure Air Temp Water Temp Dewpoint Dewpoint Depression Visibility Wind Speed Wind Dir Waves Ship Positions

N0,26 Fumimaru

Last reported at 2016-Jul-22 03:04 UTC. Time now 2016-Jul-23 13:09 UTC.
Position N 35°24' E 139°42'.

Length 39 m.

Type: Ship. MMSI: 431400427.

Date/timePositionNaut miles runAvg speedWind from/ knotsBaromVisibWave heightAir tempDewpointWater temp
2016-Jul-22 03:04N 35°24' E 139°42'2 2.4
2016-Jul-22 02:22N 35°25' E 139°41'0 0.6
2016-Jul-22 01:32N 35°25' E 139°42'4 3.8
2016-Jul-22 00:32N 35°21' E 139°42'5 4.3
2016-Jul-21 23:26N 35°18' E 139°45'3 3.7
2016-Jul-21 22:33N 35°15' E 139°47'5 4.4
2016-Jul-21 21:32N 35°10' E 139°47'  
2016-Jul-19 02:33N 35°26' E 139°45'1110.7
2016-Jul-19 01:33N 35°34' E 139°55'8 7.9
2016-Jul-19 00:33N 35°41' E 139°59'1 1.2
2016-Jul-18 23:33N 35°39' E 139°59'3 3.4
2016-Jul-18 22:33N 35°36' E 139°58'2 2.1
2016-Jul-18 21:33N 35°34' E 139°57'2 1.9
2016-Jul-18 20:29N 35°33' E 139°56'2 2.1
2016-Jul-18 19:34N 35°31' E 139°54'3 2.7
2016-Jul-18 18:32N 35°29' E 139°52'4 4.2
2016-Jul-18 17:28N 35°26' E 139°48'4 4.3
2016-Jul-18 16:33N 35°22' E 139°46'4 4.4
2016-Jul-18 15:32N 35°18' E 139°45'5 4.5
2016-Jul-18 14:32N 35°14' E 139°47'6 4.3
2016-Jul-18 13:13N 35°08' E 139°47'  

Dump ship's entire track history